• Join FlightAware (Why Join?)
  • Login
  • US Flag 
10:22PM EDT


 

Airport Tracker/Info


-or-


 

Live Flight TrackerFlight Track Log ✈ AWI4029 ✈ 03-Jan-2014 ✈ KSDF - KCLT

Flight Track Log - Related Links

Times and Time Zones

All times are in EST time to prevent confusion due to time zone crossing. See the AWI4029 flight status page for this flight to view local times or setup timezone preferences in your user account.

Time Position Orientation Groundspeed Altitude Reporting Facility
EST Latitude Longitude Course Direction KTS MPH feet Rate Location/Type
10:01AM 38.2000 -85.7333 106° East 168 193 2,200  Level Louisville TRACON
10:02AM 38.2589 -85.7411 354° North 186 214 5,400 2,460 Climbing Indianapolis Center
10:03AM 38.2539 -85.6647 95° East 235 270 7,700 1,860 Climbing Indianapolis Center
10:04AM 37.9255 -85.3070 98° East  Level Estimated
10:04AM 38.2047 -85.5839 128° Southeast 284 327 9,300  Level Indianapolis Center
10:05AM 37.9369 -85.1748 84° East  Level FlightAware Approximate
10:05AM 38.1386 -85.5086 138° Southeast 332 382 11,000  Level Indianapolis Center
10:06AM 37.8730 -85.0693 106° East  Level Estimated
10:06AM 38.0606 -85.4464 148° Southeast 334 384 12,900  Level Indianapolis Center
10:07AM 37.9728 -85.3811 150° Southeast 357 411 14,900 2,040 Climbing Indianapolis Center
10:08AM 37.8647 -85.3019 150° Southeast 369 425 17,100 1,500 Climbing Indianapolis Center
10:09AM 37.7728 -85.2328 149° Southeast 374 430 18,100 1,200 Climbing Indianapolis Center
10:10AM 37.6758 -85.1639 151° Southeast 403 464 19,700 1,380 Climbing Indianapolis Center
10:11AM 37.5803 -85.0925 149° Southeast 402 463 21,000 1,260 Climbing Indianapolis Center
10:12AM 37.4817 -85.0208 150° Southeast 406 467 22,400 1,140 Climbing Indianapolis Center
10:13AM 37.3817 -84.9475 150° Southeast 413 475 23,400 960 Climbing Indianapolis Center
10:14AM 37.2781 -84.8725 150° Southeast 424 488 24,400 960 Climbing Indianapolis Center
10:15AM 37.1739 -84.7975 150° Southeast 429 494 25,400 1,020 Climbing Indianapolis Center
10:17AM 37.0519 -84.7081 150° Southeast 434 499 26,500 720 Climbing Indianapolis Center
10:18AM 36.9608 -84.6433 150° Southeast 440 506 27,000 240 Climbing Indianapolis Center
10:19AM 36.8306 -84.5503 150° Southeast 447 514 27,000  Level Indianapolis Center
10:20AM 36.7289 -84.4775 150° Southeast 444 511 27,000  Level Indianapolis Center
10:21AM 36.6233 -84.4017 150° Southeast 441 507 27,000  Level Indianapolis Center
10:22AM 36.5178 -84.3261 150° Southeast 437 503 27,000  Level Indianapolis Center
10:23AM 36.4022 -84.2450 151° Southeast 442 509 27,000  Level Indianapolis Center
10:24AM 36.2931 -84.1675 150° Southeast 447 514 27,000  Level Indianapolis Center
10:25AM 36.1844 -84.0914 151° Southeast 446 513 27,000  Level Indianapolis Center
10:26AM 36.0958 -84.0283 150° Southeast 439 505 27,000  Level Atlanta Center
10:27AM 35.9872 -83.9542 151° Southeast 444 511 27,000  Level Atlanta Center
10:28AM 35.9058 -83.8439 132° Southeast 435 501 27,000  Level Atlanta Center
10:29AM 35.8992 -83.6850 93° East 413 475 27,000  Level Atlanta Center
10:30AM 35.8967 -83.5261 91° East 431 496 27,000  Level Atlanta Center
10:31AM 35.8936 -83.3672 91° East 446 513 27,000  Level Atlanta Center
10:32AM 35.8906 -83.1928 91° East 460 529 27,000  Level Atlanta Center
10:33AM 35.8872 -83.0339 91° East 460 529 27,000 -300 Level Atlanta Center
10:34AM 35.8589 -82.8756 102° East 460 529 26,400 -1,080 Descending Atlanta Center
10:35AM 35.8300 -82.7172 103° East 465 535 24,900 -1,560 Descending Atlanta Center
10:36AM 35.8011 -82.5692 103° East 465 535 23,300 -2,100 Descending Atlanta Center
10:37AM 35.7744 -82.4211 102° East 450 518 20,800 -2,100 Descending Atlanta Center
10:38AM 35.7453 -82.2861 105° East 429 494 19,100 -1,500 Descending Atlanta Center
10:39AM 35.7250 -82.1689 102° East 402 463 17,800 -1,260 Descending Atlanta Center
10:40AM 35.6911 -82.0111 105° East 404 465 16,500 -1,260 Descending Atlanta Center
10:41AM 35.6706 -81.9017 103° East 397 457 15,300 -1,380 Descending Atlanta Center
10:42AM 35.6431 -81.7644 104° East 397 457 13,900 -1,500 Descending Atlanta Center
10:42AM 35.6406 -81.7517 104° East 407 468 13,800 -1,440 Descending Atlanta Center
10:43AM 35.6128 -81.6119 104° East 384 442 12,300 -960 Descending Atlanta Center
10:44AM 35.5717 -81.5314 122° Southeast 371 427 12,000 -240 Descending Atlanta Center
10:44AM 35.5544 -81.5064 130° Southeast 343 395 12,100 -120 Climbing Atlanta Center
10:45AM 35.5092 -81.4389 129° Southeast 353 406 11,900  Descending Atlanta Center
10:45AM 35.4919 -81.4142 131° Southeast 344 396 12,100 -120 Climbing Atlanta Center
10:46AM 35.4403 -81.3392 130° Southeast 353 406 11,800 -600 Descending Atlanta Center
10:46AM 35.4317 -81.3217 121° Southeast 343 395 11,500 -1,800 Descending Atlanta Center
10:47AM 35.3819 -81.2519 131° Southeast 342 394 10,000 -1,800 Descending Atlanta Center
10:47AM 35.3756 -81.2419 128° Southeast 336 387 9,900 -1,020 Descending Atlanta Center
10:48AM 35.3236 -81.1675 131° Southeast 337 388 9,000 -840 Descending Atlanta Center
10:48AM 35.3194 -81.1600 124° Southeast 314 361 9,100  Climbing Atlanta Center
10:49AM 35.2697 -81.0878 130° Southeast 325 374 9,000  Descending Atlanta Center
10:49AM 35.2675 -81.0856 141° Southeast 311 358 9,100 -720 Climbing Atlanta Center
10:50AM 35.1900 -81.0703 171° South 279 321 8,300 -720 Descending Atlanta Center
10:50AM 35.1919 -81.0703 360° North 274 315 8,400 -1,200 Climbing Atlanta Center
10:51AM 35.1169 -81.0653 177° South 266 306 7,100 -1,380 Descending Atlanta Center
10:52AM 35.0353 -81.0531 173° South 250 288 5,500 -1,440 Descending Atlanta Center
10:53AM 35.0169 -80.9878 109° East 201 231 4,100 -900 Descending Atlanta Center
10:54AM 35.0553 -80.9383 47° Northeast 142 163 3,600 -480 Descending Atlanta Center
10:55AM 35.0908 -80.9444 352° North 148 170 3,100 -720 Descending Atlanta Center
10:56AM 35.1328 -80.9456 359° North 150 173 2,300 -840 Descending Atlanta Center
10:57AM 35.1661 -80.9519 351° North 128 147 1,500 -840 Descending Atlanta Center